Time;durP1;ratioP1;P1;durP2;ratioP2;P2;SDS_P1;SDS_P2;PMS_P1;PMS_P2;Temp;Humidity;BMP_temperature;BMP_pressure;BME280_temperature;BME280_humidity;BME280_pressure;Samples;Min_cycle;Max_cycle;Signal;HPM_P1;HPM_P2
2022/04/19 05:42:08;;;;;;;5.20;4.50;;;6.50;99.90;;;;;;6088077;23;20837;-80
2022/04/19 05:44:36;;;;;;;7.60;5.18;;;6.50;99.90;;;;;;4943049;23;20308;-80
2022/04/19 05:47:02;;;;;;;6.43;4.57;;;6.90;99.90;;;;;;5007967;23;20048;-80
2022/04/19 05:49:28;;;;;;;7.85;4.80;;;6.90;99.90;;;;;;4947795;29;20181;-80
2022/04/19 05:51:54;;;;;;;6.50;4.88;;;6.90;99.90;;;;;;4949631;29;20087;-81
2022/04/19 05:54:20;;;;;;;8.13;5.00;;;6.90;99.90;;;;;;4934677;29;20027;-81
2022/04/19 05:56:45;;;;;;;6.30;5.70;;;6.80;99.90;;;;;;4955418;28;20012;-81
2022/04/19 05:59:11;;;;;;;7.40;4.68;;;6.70;99.90;;;;;;4984119;28;20046;-81
2022/04/19 06:07:05;;;;;;;6.50;5.13;;;6.70;99.90;;;;;;4977434;28;20455;-81
2022/04/19 06:09:31;;;;;;;8.35;5.03;;;6.70;99.90;;;;;;4960590;29;20032;-81
2022/04/19 06:11:57;;;;;;;6.07;5.03;;;6.70;99.90;;;;;;4961264;29;20118;-81
2022/04/19 06:14:22;;;;;;;5.65;4.50;;;6.60;99.90;;;;;;4959041;29;20051;-81
2022/04/19 06:16:48;;;;;;;6.43;5.35;;;6.60;99.90;;;;;;4963462;29;20075;-81
2022/04/19 06:19:13;;;;;;;9.48;5.15;;;7.80;99.90;;;;;;4956157;29;20050;-79
2022/04/19 06:21:40;;;;;;;7.15;5.05;;;6.70;99.90;;;;;;4955408;29;20061;-81
2022/04/19 06:24:06;;;;;;;6.47;4.95;;;6.70;99.90;;;;;;4955853;29;20031;-80
2022/04/19 06:26:31;;;;;;;7.88;5.30;;;6.70;99.90;;;;;;4972627;28;20023;-81
2022/04/19 06:28:57;;;;;;;6.93;5.18;;;6.80;99.90;;;;;;4972065;29;20049;-80
2022/04/19 06:31:23;;;;;;;8.80;5.85;;;6.80;99.90;;;;;;4972261;29;20039;-81
2022/04/19 06:33:48;;;;;;;5.90;4.75;;;6.80;99.90;;;;;;4953828;29;20090;-81
2022/04/19 06:36:14;;;;;;;5.78;4.93;;;6.90;99.90;;;;;;4956367;29;20032;-81
2022/04/19 06:38:40;;;;;;;6.97;5.90;;;6.90;99.90;;;;;;4954388;29;20042;-81
2022/04/19 06:41:06;;;;;;;6.50;4.90;;;6.80;99.90;;;;;;4953728;29;20023;-80
2022/04/19 06:43:32;;;;;;;7.03;4.90;;;6.90;99.90;;;;;;4968865;29;20058;-80
2022/04/19 06:45:59;;;;;;;5.18;4.07;;;6.90;99.90;;;;;;4947715;29;20019;-80
2022/04/19 06:48:24;;;;;;;8.70;5.13;;;6.90;99.90;;;;;;4947083;29;20038;-80
2022/04/19 06:50:50;;;;;;;5.85;4.60;;;6.90;99.90;;;;;;4949159;29;20031;-79
2022/04/19 06:53:17;;;;;;;7.07;5.93;;;7.10;99.90;;;;;;4947117;29;20035;-80
2022/04/19 06:55:42;;;;;;;9.32;6.72;;;7.10;99.90;;;;;;4946246;28;20364;-80
2022/04/19 06:58:09;;;;;;;8.77;5.97;;;7.00;99.90;;;;;;4963245;29;20038;-79
2022/04/19 07:00:35;;;;;;;5.80;4.88;;;7.00;99.90;;;;;;4946219;29;20033;-80
2022/04/19 07:03:00;;;;;;;7.25;5.65;;;7.00;99.90;;;;;;4962031;29;20107;-79
2022/04/19 07:05:30;;;;;;;10.55;7.75;;;6.90;99.90;;;;;;4964915;28;20035;-80
2022/04/19 07:07:56;;;;;;;91.22;39.80;;;6.90;99.90;;;;;;4948225;29;20027;-80
2022/04/19 07:10:22;;;;;;;17.85;10.98;;;6.90;99.90;;;;;;4947432;29;20039;-80
2022/04/19 07:12:48;;;;;;;14.65;13.30;;;6.90;99.90;;;;;;4964773;29;20077;-78
2022/04/19 07:15:16;;;;;;;21.30;19.20;;;6.80;99.90;;;;;;4945197;29;20603;-79
2022/04/19 07:18:01;;;;;;;7.63;6.93;;;6.90;99.90;;;;;;4964648;28;20035;-79
2022/04/19 07:28:39;;;;;;;6.72;5.18;;;6.90;99.90;;;;;;4964572;29;20054;-80
2022/04/19 07:31:05;;;;;;;7.72;5.47;;;6.80;99.90;;;;;;4946264;29;20028;-80
2022/04/19 07:33:34;;;;;;;6.82;5.40;;;6.80;99.90;;;;;;4948451;29;20083;-80
2022/04/19 07:36:00;;;;;;;7.85;6.25;;;6.80;99.90;;;;;;4943325;29;20463;-78
2022/04/19 07:38:25;;;;;;;9.38;5.75;;;6.80;99.90;;;;;;4963309;29;20042;-79
2022/04/19 07:40:51;;;;;;;8.75;6.10;;;6.90;99.90;;;;;;4942662;29;20027;-79
2022/04/19 07:43:16;;;;;;;7.93;5.90;;;6.90;99.90;;;;;;4946842;29;20051;-80
2022/04/19 07:45:43;;;;;;;6.85;5.93;;;7.00;99.90;;;;;;4965703;28;20024;-81
2022/04/19 07:48:09;;;;;;;8.60;6.57;;;7.00;99.90;;;;;;4947649;29;20051;-80
2022/04/19 07:50:34;;;;;;;8.38;7.10;;;7.00;99.90;;;;;;4948550;29;20050;-80
2022/04/19 07:53:01;;;;;;;8.52;5.97;;;7.00;99.90;;;;;;4948544;29;20390;-81
2022/04/19 07:55:27;;;;;;;7.43;6.20;;;7.00;99.90;;;;;;4949387;28;20031;-80
2022/04/19 07:57:53;;;;;;;6.78;5.93;;;6.90;99.90;;;;;;4950320;29;20035;-80
2022/04/19 08:00:20;;;;;;;9.77;6.25;;;6.90;99.90;;;;;;4949483;29;20119;-80
2022/04/19 08:02:47;;;;;;;7.88;6.78;;;6.90;99.90;;;;;;4951410;29;20039;-81
2022/04/19 08:05:13;;;;;;;9.00;6.90;;;6.80;99.90;;;;;;4965783;29;20027;-81
2022/04/19 08:07:39;;;;;;;8.45;6.57;;;6.80;99.90;;;;;;4947598;29;20054;-80
2022/04/19 08:10:05;;;;;;;8.10;6.80;;;6.90;99.90;;;;;;4949068;29;20038;-80
2022/04/19 08:12:32;;;;;;;9.60;7.10;;;7.00;99.90;;;;;;4950283;29;20023;-81
2022/04/19 08:14:58;;;;;;;8.93;6.43;;;6.90;99.90;;;;;;4954588;29;20051;-81
2022/04/19 08:17:24;;;;;;;7.65;6.88;;;7.00;99.90;;;;;;4953976;28;20027;-81
2022/04/19 08:19:50;;;;;;;7.03;6.15;;;7.00;99.90;;;;;;4948186;29;20095;-80
2022/04/19 08:22:16;;;;;;;8.30;6.13;;;7.00;99.90;;;;;;4951543;29;20077;-80
2022/04/19 08:24:42;;;;;;;8.23;7.43;;;7.10;99.90;;;;;;4946761;29;20034;-79
2022/04/19 08:27:08;;;;;;;10.20;7.65;;;7.10;99.90;;;;;;4942786;29;20083;-80
2022/04/19 08:29:34;;;;;;;9.25;6.30;;;7.10;99.90;;;;;;4941907;29;20121;-79
2022/04/19 08:32:00;;;;;;;9.23;7.00;;;7.10;99.90;;;;;;4945803;29;20177;-81
2022/04/19 08:34:25;;;;;;;11.65;8.95;;;6.90;99.90;;;;;;4945447;29;20063;-80
2022/04/19 08:36:51;;;;;;;8.82;7.85;;;6.90;99.90;;;;;;4943606;29;20031;-80
2022/04/19 08:39:18;;;;;;;9.10;6.60;;;7.00;99.90;;;;;;4943342;29;20154;-79
2022/04/19 08:41:44;;;;;;;10.23;8.43;;;6.90;99.90;;;;;;4960199;29;20020;-80
2022/04/19 08:44:11;;;;;;;11.38;8.57;;;6.90;99.90;;;;;;4960619;29;20114;-80
2022/04/19 08:46:40;;;;;;;6.82;5.72;;;6.90;99.90;;;;;;4945462;29;20043;-80
2022/04/19 08:49:06;;;;;;;8.30;7.40;;;7.00;99.90;;;;;;4962480;29;20034;-80
2022/04/19 08:51:35;;;;;;;7.82;6.97;;;7.10;99.90;;;;;;4944489;29;20023;-80
2022/04/19 08:59:31;;;;;;;8.43;7.53;;;7.10;99.90;;;;;;4961413;29;20055;-81
2022/04/19 09:01:57;;;;;;;11.05;7.70;;;6.90;99.90;;;;;;4943428;29;20027;-79
2022/04/19 09:04:24;;;;;;;11.95;9.15;;;7.00;99.90;;;;;;4944826;29;20031;-81
2022/04/19 09:06:58;;;;;;;7.85;6.70;;;7.00;99.90;;;;;;4943996;29;20383;-80
2022/04/19 09:09:29;;;;;;;12.63;9.70;;;7.10;99.90;;;;;;4961274;29;20098;-80
2022/04/19 09:12:10;;;;;;;6.82;6.13;;;7.20;99.90;;;;;;4949389;29;20096;-80
2022/04/19 09:15:06;;;;;;;7.90;6.35;;;7.10;99.90;;;;;;4961806;23;20068;-81
2022/04/19 09:20:18;;;;;;;9.00;5.82;;;7.20;99.90;;;;;;5035178;23;20051;-80
2022/04/19 09:22:44;;;;;;;;;;;7.20;99.90;;;;;;4947722;29;20039;-81
2022/04/19 09:25:17;;;;;;;6.80;5.65;;;7.20;99.90;;;;;;4933693;23;19956;-78
2022/04/19 09:27:43;;;;;;;8.23;5.72;;;7.30;99.90;;;;;;4904521;29;20040;-78
2022/04/19 09:30:15;;;;;;;5.45;4.93;;;7.30;99.90;;;;;;4882542;29;20040;-78
2022/04/19 09:32:41;;;;;;;7.18;6.15;;;7.30;99.90;;;;;;4886423;29;20048;-77
2022/04/19 09:35:07;;;;;;;6.28;5.43;;;7.30;99.90;;;;;;4885936;29;20055;-76
2022/04/19 09:37:32;;;;;;;6.13;4.75;;;7.30;99.90;;;;;;4899231;29;20093;-78
2022/04/19 09:39:59;;;;;;;5.80;4.88;;;7.30;99.90;;;;;;4882181;29;20029;-78
2022/04/19 09:42:26;;;;;;;21.92;15.10;;;7.30;99.90;;;;;;4883940;29;20033;-79
2022/04/19 09:45:13;;;;;;;8.07;6.28;;;7.30;99.90;;;;;;4912988;29;20009;-81
2022/04/19 09:47:50;;;;;;;10.15;7.10;;;7.30;99.90;;;;;;4885272;29;20025;-78
2022/04/19 09:50:15;;;;;;;7.15;5.90;;;7.30;99.90;;;;;;4898933;29;20476;-78
2022/04/19 09:52:48;;;;;;;8.88;5.32;;;7.40;99.90;;;;;;4882482;29;20039;-78
2022/04/19 09:55:15;;;;;;;5.95;5.35;;;7.40;99.90;;;;;;4901581;29;20366;-78
2022/04/19 09:57:41;;;;;;;7.78;6.78;;;7.50;99.90;;;;;;4899337;29;20100;-76
2022/04/19 10:00:11;;;;;;;7.88;7.18;;;7.50;99.90;;;;;;4897426;29;20024;-75
2022/04/19 10:08:21;;;;;;;4.20;3.90;;;7.40;99.90;;;;;;4898624;29;20039;-78
2022/04/19 10:10:49;;;;;;;5.32;4.82;;;7.40;99.90;;;;;;4898716;29;20036;-75
2022/04/19 10:13:17;;;;;;;7.03;5.10;;;7.40;99.90;;;;;;4900657;29;20036;-76
2022/04/19 10:15:43;;;;;;;6.53;5.93;;;7.40;99.90;;;;;;4896689;29;21692;-75
2022/04/19 10:18:10;;;;;;;6.45;5.20;;;7.50;99.90;;;;;;4896731;29;20100;-75
2022/04/19 10:20:54;;;;;;;7.53;6.75;;;7.50;99.90;;;;;;4896541;29;20029;-75
2022/04/19 10:23:21;;;;;;;3.95;3.60;;;7.50;99.90;;;;;;4879583;29;20033;-75
2022/04/19 10:25:48;;;;;;;13.65;11.55;;;7.50;99.90;;;;;;4896442;29;20052;-77
2022/04/19 10:28:30;;;;;;;5.57;4.97;;;7.50;99.90;;;;;;4882433;29;20029;-77
2022/04/19 10:30:56;;;;;;;6.50;5.45;;;7.40;99.90;;;;;;4897210;29;20364;-77
2022/04/19 10:33:45;;;;;;;6.45;5.35;;;7.40;99.90;;;;;;4896668;29;20607;-77
2022/04/19 10:36:22;;;;;;;5.55;4.93;;;7.50;99.90;;;;;;4897171;29;20040;-77
2022/04/19 10:39:13;;;;;;;4.82;3.40;;;7.60;99.90;;;;;;4897313;29;20048;-77
2022/04/19 10:42:05;;;;;;;5.28;4.78;;;7.50;99.90;;;;;;4898506;29;20389;-78
2022/04/19 10:44:32;;;;;;;6.10;5.22;;;7.50;99.90;;;;;;4904584;29;20084;-80
2022/04/19 10:47:19;;;;;;;6.75;5.78;;;7.40;99.90;;;;;;4888663;29;20028;-80
2022/04/19 10:50:05;;;;;;;12.75;6.93;;;7.30;99.90;;;;;;4887820;29;20046;-80
2022/04/19 10:52:38;;;;;;;8.27;5.40;;;7.40;99.90;;;;;;4884447;29;20488;-78
2022/04/19 10:55:22;;;;;;;11.30;7.22;;;7.30;99.90;;;;;;4883772;29;20041;-78
2022/04/19 10:58:06;;;;;;;5.35;4.85;;;7.40;99.90;;;;;;4900799;29;20051;-78
2022/04/19 11:00:36;;;;;;;6.07;5.47;;;7.40;99.90;;;;;;4900406;29;20029;-78
2022/04/19 11:03:03;;;;;;;5.18;4.68;;;7.30;99.90;;;;;;4900558;29;20029;-77
2022/04/19 11:05:58;;;;;;;4.97;4.43;;;7.30;99.90;;;;;;4900433;29;20039;-78
2022/04/19 11:08:26;;;;;;;5.32;4.50;;;7.30;99.90;;;;;;4900819;29;20054;-78
2022/04/19 11:10:52;;;;;;;5.78;5.00;;;7.30;99.90;;;;;;4900993;29;20024;-78
2022/04/19 11:13:21;;;;;;;2.67;2.47;;;7.30;99.90;;;;;;4883942;29;20035;-78
2022/04/19 11:15:57;;;;;;;5.85;4.45;;;7.30;99.90;;;;;;4900766;29;20032;-78
2022/04/19 11:18:26;;;;;;;5.40;4.63;;;7.40;99.90;;;;;;4900424;29;20037;-78
2022/04/19 11:20:58;;;;;;;4.90;3.35;;;7.40;99.90;;;;;;4884495;29;20466;-78
2022/04/19 11:23:26;;;;;;;5.90;4.03;;;7.60;99.90;;;;;;4886522;29;20037;-78
2022/04/19 11:25:53;;;;;;;6.13;5.05;;;7.70;99.90;;;;;;4903400;29;20055;-77
2022/04/19 11:28:23;;;;;;;5.15;4.22;;;7.80;99.90;;;;;;4902856;29;20080;-78
2022/04/19 11:30:55;;;;;;;5.80;3.80;;;7.90;99.90;;;;;;4902611;29;20076;-78
2022/04/19 11:33:31;;;;;;;10.20;4.18;;;8.00;99.90;;;;;;4884691;29;20047;-78
2022/04/19 11:36:15;;;;;;;3.17;2.85;;;8.00;99.90;;;;;;4902400;29;20021;-78
2022/04/19 11:38:44;;;;;;;5.47;3.53;;;8.10;99.90;;;;;;4885341;29;20623;-79
2022/04/19 11:46:44;;;;;;;3.75;2.22;;;8.30;99.90;;;;;;4902052;29;20381;-78
2022/04/19 11:49:16;;;;;;;22.52;14.60;;;8.10;99.90;;;;;;4884184;29;20051;-78
2022/04/19 11:51:58;;;;;;;6.28;5.30;;;8.00;99.90;;;;;;4901192;29;20556;-78
2022/04/19 11:54:32;;;;;;;2.30;2.10;;;7.90;99.90;;;;;;4883369;29;20113;-78
2022/04/19 11:57:03;;;;;;;16.30;9.13;;;7.80;99.90;;;;;;4883726;29;20067;-78
2022/04/19 11:59:38;;;;;;;5.97;4.35;;;7.70;99.90;;;;;;4900787;29;20384;-78
2022/04/19 12:02:11;;;;;;;5.65;5.05;;;7.60;99.90;;;;;;4902732;29;20021;-78
2022/04/19 12:04:37;;;;;;;2.17;1.98;;;7.50;99.90;;;;;;4900392;29;20384;-78
2022/04/19 12:07:03;;;;;;;1.80;1.70;;;7.50;99.90;;;;;;4900204;29;20033;-78
2022/04/19 12:09:31;;;;;;;4.30;3.90;;;7.50;99.90;;;;;;4899941;29;20031;-78
2022/04/19 12:11:57;;;;;;;1.73;1.63;;;7.50;99.90;;;;;;4883302;29;20029;-78
2022/04/19 12:14:27;;;;;;;1.40;1.30;;;7.50;99.90;;;;;;4900043;29;20473;-78
2022/04/19 12:17:01;;;;;;;1.67;1.40;;;7.50;99.90;;;;;;4900904;29;20095;-78
2022/04/19 12:19:33;;;;;;;1.40;1.30;;;7.40;99.90;;;;;;4901464;29;20033;-78
2022/04/19 12:22:00;;;;;;;3.45;1.58;;;7.40;99.90;;;;;;4902079;29;20032;-77
2022/04/19 12:24:28;;;;;;;2.65;1.73;;;7.30;99.90;;;;;;4884123;29;20535;-78
2022/04/19 12:27:06;;;;;;;1.58;1.48;;;7.30;99.90;;;;;;4902869;29;20036;-77
2022/04/19 12:29:35;;;;;;;2.70;2.17;;;7.30;99.90;;;;;;4900609;29;20027;-78
2022/04/19 12:32:02;;;;;;;1.63;1.50;;;7.40;99.90;;;;;;4900164;29;20465;-77
2022/04/19 12:34:38;;;;;;;1.60;1.50;;;7.30;99.90;;;;;;4900672;29;20020;-80
2022/04/19 12:37:09;;;;;;;1.60;1.50;;;7.20;99.90;;;;;;4881708;29;20500;-78
2022/04/19 12:39:34;;;;;;;1.85;1.70;;;7.20;99.90;;;;;;4883824;29;20138;-79
2022/04/19 12:42:13;;;;;;;1.83;1.60;;;7.20;99.90;;;;;;4884555;29;20059;-80
2022/04/19 12:44:40;;;;;;;2.28;1.70;;;7.30;99.90;;;;;;4900512;29;20036;-78
2022/04/19 12:47:14;;;;;;;2.88;2.67;;;7.40;99.90;;;;;;4898975;29;20036;-77
2022/04/19 12:49:47;;;;;;;9.30;5.40;;;7.40;99.90;;;;;;4947738;23;20504;-81
2022/04/19 12:52:15;;;;;;;4.97;3.83;;;7.50;99.90;;;;;;4959832;28;20031;-81
2022/04/19 12:54:43;;;;;;;1.83;1.52;;;7.70;99.90;;;;;;4953414;29;20028;-81
2022/04/19 12:57:22;;;;;;;1.50;1.40;;;7.80;99.90;;;;;;4949944;29;20027;-80
2022/04/19 12:59:47;;;;;;;1.38;1.17;;;7.90;99.90;;;;;;4952244;29;20035;-80
2022/04/19 13:12:50;;;;;;;0.82;0.82;;;8.10;99.90;;;;;;4941891;29;20031;-80
2022/04/19 13:15:16;;;;;;;0.95;0.95;;;7.90;99.90;;;;;;5042696;23;20119;-80
2022/04/19 13:17:42;;;;;;;1.88;1.55;;;8.10;99.90;;;;;;5390146;23;20059;-80
2022/04/19 13:20:09;;;;;;;1.25;1.15;;;8.20;99.90;;;;;;4937591;28;20050;-80
2022/04/19 13:22:38;;;;;;;1.73;1.63;;;8.40;99.90;;;;;;4956401;29;20046;-80
2022/04/19 13:25:05;;;;;;;1.77;1.55;;;8.50;99.90;;;;;;4942288;29;20049;-81
2022/04/19 13:27:35;;;;;;;1.58;1.35;;;8.60;99.90;;;;;;4954587;29;20035;-80
2022/04/19 13:30:01;;;;;;;3.63;3.33;;;8.80;99.90;;;;;;4952527;29;20037;-80
2022/04/19 13:32:27;;;;;;;1.70;1.60;;;8.80;99.90;;;;;;4968394;28;20541;-79
2022/04/19 13:34:53;;;;;;;1.83;1.35;;;8.90;99.90;;;;;;4946541;29;20036;-80
2022/04/19 13:40:08;;;;;;;3.13;2.50;;;8.80;99.90;;;;;;4973597;29;20027;-80
2022/04/19 13:42:34;;;;;;;1.65;1.55;;;8.90;99.90;;;;;;4969264;28;20015;-80
2022/04/19 13:50:10;;;;;;;7.97;2.92;;;8.70;99.90;;;;;;5334891;23;20039;-80
2022/04/19 13:52:36;;;;;;;2.80;2.60;;;8.60;99.90;;;;;;5239427;23;20074;-80
2022/04/19 13:55:02;;;;;;;2.30;1.20;;;8.60;99.90;;;;;;5027914;23;20055;-80
2022/04/19 14:00:13;;;;;;;1.65;1.55;;;8.40;99.90;;;;;;5129320;23;20063;-81
2022/04/19 14:02:39;;;;;;;3.00;2.70;;;8.30;99.90;;;;;;4951541;29;20047;-79
2022/04/19 14:05:07;;;;;;;1.40;1.30;;;8.20;99.90;;;;;;4936679;29;20059;-80
2022/04/19 14:07:33;;;;;;;2.13;1.92;;;8.20;99.90;;;;;;4953784;29;20075;-80
2022/04/19 14:09:59;;;;;;;4.50;1.73;;;8.10;99.90;;;;;;4960877;23;20110;-81
2022/04/19 14:12:25;;;;;;;1.58;1.48;;;8.10;99.90;;;;;;4955982;29;20031;-80
2022/04/19 14:14:51;;;;;;;1.55;1.45;;;8.00;99.90;;;;;;4939449;29;20050;-80
2022/04/19 14:17:17;;;;;;;3.67;3.00;;;7.50;99.90;;;;;;4954769;29;20035;-80
2022/04/19 14:19:43;;;;;;;8.20;7.40;;;8.00;99.90;;;;;;4954897;29;20479;-80
2022/04/19 14:22:08;;;;;;;3.50;3.20;;;7.90;99.90;;;;;;4954858;29;20090;-80
2022/04/19 14:24:34;;;;;;;3.95;3.65;;;8.00;99.90;;;;;;4956679;29;20407;-80
2022/04/19 14:27:00;;;;;;;3.47;2.90;;;8.00;99.90;;;;;;4956326;29;20546;-80
2022/04/19 14:35:02;;;;;;;2.75;2.53;;;8.20;99.90;;;;;;4969733;29;20042;-80
2022/04/19 14:37:40;;;;;;;5.35;3.70;;;8.20;99.90;;;;;;4951873;29;20015;-79
2022/04/19 14:40:06;;;;;;;3.25;3.05;;;8.20;99.90;;;;;;4959395;29;20031;-80
2022/04/19 14:42:33;;;;;;;2.20;2.10;;;8.10;99.90;;;;;;4968044;28;20031;-80
2022/04/19 14:44:59;;;;;;;2.33;2.10;;;8.00;99.90;;;;;;4951479;29;20027;-78
2022/04/19 14:47:24;;;;;;;3.20;2.90;;;7.90;99.90;;;;;;4957847;28;20035;-77
2022/04/19 14:52:13;;;;;;;2.30;2.10;;;7.90;99.90;;;;;;4967785;29;20027;-79
2022/04/19 14:53:22;;;;;;;2.90;2.70;;;7.90;99.90;;;;;;4982808;28;20022;-79
2022/04/19 14:55:47;;;;;;;3.15;2.92;;;7.90;99.90;;;;;;4985432;23;20036;-79
2022/04/19 14:58:13;;;;;;;2.70;2.50;;;7.80;99.90;;;;;;4932031;29;20036;-79
2022/04/19 15:00:39;;;;;;;2.65;2.45;;;7.90;99.90;;;;;;4921062;29;20032;-79
2022/04/19 15:03:05;;;;;;;2.72;2.53;;;7.90;99.90;;;;;;4905676;29;20083;-80
2022/04/19 15:05:31;;;;;;;5.90;4.88;;;7.80;99.90;;;;;;4922707;29;20088;-80
2022/04/19 15:07:57;;;;;;;7.35;5.50;;;7.80;99.90;;;;;;4922906;29;20047;-80
2022/04/19 15:10:23;;;;;;;3.33;2.80;;;7.80;99.90;;;;;;4924139;29;20024;-80
2022/04/19 15:12:52;;;;;;;3.80;3.20;;;7.90;99.90;;;;;;4905958;29;20393;-79
2022/04/19 15:15:19;;;;;;;2.88;2.63;;;7.90;99.90;;;;;;4906913;29;20027;-79
2022/04/19 15:17:45;;;;;;;3.03;2.72;;;7.90;99.90;;;;;;4924926;29;20032;-80
2022/04/19 15:20:10;;;;;;;3.45;3.15;;;7.90;99.90;;;;;;4908145;29;20038;-80
2022/04/19 15:22:36;;;;;;;3.03;2.83;;;7.80;99.90;;;;;;4908131;29;20100;-79
2022/04/19 15:25:02;;;;;;;14.45;8.90;;;7.70;99.90;;;;;;4907510;29;20028;-80
2022/04/19 15:27:27;;;;;;;38.58;18.45;;;7.70;99.90;;;;;;4909047;29;20490;-80
2022/04/19 15:29:53;;;;;;;71.28;33.45;;;7.60;99.90;;;;;;4924104;29;20032;-80
2022/04/19 15:32:19;;;;;;;56.60;29.02;;;7.60;99.90;;;;;;4906595;29;20084;-80
2022/04/19 15:34:45;;;;;;;17.23;10.45;;;7.60;99.90;;;;;;4911553;29;20024;-80
2022/04/19 15:37:11;;;;;;;2.85;2.65;;;7.50;99.90;;;;;;4910237;29;20024;-80
2022/04/19 15:39:37;;;;;;;5.95;4.90;;;7.50;99.90;;;;;;4909741;29;20047;-80
2022/04/19 15:42:03;;;;;;;2.75;2.38;;;7.50;99.90;;;;;;4925349;29;20032;-80
2022/04/19 15:44:29;;;;;;;2.90;2.70;;;7.50;99.90;;;;;;4911680;29;20123;-79
2022/04/19 15:46:57;;;;;;;4.93;2.60;;;7.40;99.90;;;;;;4914224;29;20032;-77
2022/04/19 15:49:29;;;;;;;6.78;6.18;;;7.30;99.90;;;;;;4907680;29;20091;-81
2022/04/19 15:51:55;;;;;;;8.18;7.38;;;7.30;99.90;;;;;;4906811;29;20051;-79
2022/04/19 15:54:28;;;;;;;5.07;4.57;;;7.20;99.90;;;;;;4937175;29;20034;-81
2022/04/19 15:56:54;;;;;;;5.28;4.75;;;7.30;99.90;;;;;;4907499;29;20048;-78
2022/04/19 15:59:28;;;;;;;4.90;3.20;;;7.30;99.90;;;;;;4937119;29;20048;-79
2022/04/19 16:01:56;;;;;;;3.33;3.03;;;7.30;99.90;;;;;;4916653;29;20122;-78
2022/04/19 16:04:22;;;;;;;2.70;2.50;;;7.20;99.90;;;;;;4940129;29;20035;-77
2022/04/19 16:06:48;;;;;;;4.03;3.50;;;7.30;99.90;;;;;;4946334;23;20103;-77
2022/04/19 16:09:14;;;;;;;3.15;2.85;;;7.40;99.90;;;;;;4962038;28;20071;-80
2022/04/19 16:11:39;;;;;;;3.20;2.90;;;7.30;99.90;;;;;;4973627;23;20047;-80
2022/04/19 16:14:08;;;;;;;3.08;2.78;;;7.20;99.90;;;;;;4997544;23;20042;-80
2022/04/19 16:25:07;;;;;;;2.63;2.42;;;7.00;99.90;;;;;;4943322;29;20046;-78
2022/04/19 16:27:33;;;;;;;3.85;1.85;;;7.00;99.90;;;;;;4957742;29;20023;-78
2022/04/19 16:30:01;;;;;;;2.08;1.42;;;7.00;99.90;;;;;;4941494;29;20095;-77
2022/04/19 16:32:27;;;;;;;2.15;1.83;;;6.90;99.90;;;;;;4959619;29;20545;-77
2022/04/19 16:34:52;;;;;;;1.17;1.08;;;6.80;99.90;;;;;;4940901;29;20039;-78
2022/04/19 16:37:18;;;;;;;1.42;1.33;;;6.80;99.90;;;;;;4958002;28;20078;-77
2022/04/19 16:39:44;;;;;;;1.13;1.02;;;6.70;99.90;;;;;;4939814;29;20038;-77
2022/04/19 16:42:11;;;;;;;1.58;1.00;;;6.70;99.90;;;;;;4957809;29;20375;-77
2022/04/19 16:44:37;;;;;;;2.03;1.83;;;6.60;99.90;;;;;;4957665;29;20533;-77
2022/04/19 16:47:02;;;;;;;3.95;3.17;;;6.70;99.90;;;;;;4956889;28;20086;-76
2022/04/19 16:49:57;;;;;;;2.97;2.15;;;6.60;99.90;;;;;;4945603;29;20075;-79
2022/04/19 16:57:25;;;;;;;6.57;4.00;;;6.50;99.90;;;;;;5905493;23;20014;-80
2022/04/19 16:59:52;;;;;;;6.53;3.90;;;6.40;99.90;;;;;;4929926;29;20043;-80
2022/04/19 17:02:17;;;;;;;2.53;1.85;;;6.40;99.90;;;;;;4929482;29;20031;-80
2022/04/19 17:04:44;;;;;;;2.60;1.58;;;6.30;99.90;;;;;;4928800;29;20032;-80
2022/04/19 17:07:11;;;;;;;2.28;1.95;;;6.20;99.90;;;;;;4927795;29;20092;-80
2022/04/19 17:09:37;;;;;;;5.45;2.08;;;6.20;99.90;;;;;;4946886;29;20032;-80
2022/04/19 17:12:02;;;;;;;2.78;1.67;;;6.20;99.90;;;;;;4930737;29;20130;-80
2022/04/19 17:14:28;;;;;;;3.47;2.92;;;6.10;99.90;;;;;;4930075;29;20083;-80
2022/04/19 17:16:54;;;;;;;3.47;3.17;;;6.10;99.90;;;;;;4930524;29;20032;-81
2022/04/19 17:19:20;;;;;;;4.43;2.90;;;6.10;99.90;;;;;;4951009;29;20075;-81
2022/04/19 17:24:11;;;;;;;4.82;2.92;;;6.10;99.90;;;;;;5004732;23;20123;-80
2022/04/19 17:26:37;;;;;;;5.05;4.15;;;6.60;99.90;;;;;;4966219;28;20082;-80
2022/04/19 17:29:03;;;;;;;6.65;4.32;;;6.10;99.90;;;;;;4952142;29;20031;-81
2022/04/19 17:31:29;;;;;;;12.73;6.47;;;6.10;99.90;;;;;;4951726;29;20031;-80
2022/04/19 17:33:56;;;;;;;9.43;6.40;;;6.10;99.90;;;;;;4969647;29;20023;-81
2022/04/19 17:36:21;;;;;;;9.48;5.05;;;6.10;99.90;;;;;;4970613;28;20066;-80
2022/04/19 17:38:47;;;;;;;5.78;4.07;;;6.10;99.90;;;;;;4954648;29;20039;-81
2022/04/19 17:41:13;;;;;;;6.57;3.85;;;6.00;99.90;;;;;;4956728;29;20023;-82
2022/04/19 17:43:39;;;;;;;5.00;3.40;;;6.00;99.90;;;;;;4971810;29;20027;-81
2022/04/19 17:46:05;;;;;;;8.15;2.92;;;6.00;99.90;;;;;;4955716;29;20035;-81
2022/04/19 17:48:36;;;;;;;4.43;3.08;;;6.00;99.90;;;;;;4971339;29;20035;-80
2022/04/19 17:56:33;;;;;;;3.55;2.55;;;6.40;99.90;;;;;;5004710;23;20065;-81
2022/04/19 17:59:02;;;;;;;2.58;2.38;;;5.90;99.90;;;;;;4958409;29;20035;-81
2022/04/19 18:04:05;;;;;;;3.85;3.17;;;6.00;99.90;;;;;;5377608;23;20074;-80
2022/04/19 18:09:07;;;;;;;3.72;3.42;;;6.00;99.90;;;;;;5566228;23;19945;-80
2022/04/19 18:11:37;;;;;;;5.18;2.95;;;5.90;99.90;;;;;;4958626;29;20035;-80
2022/04/19 18:14:06;;;;;;;3.67;2.78;;;6.30;99.90;;;;;;4974972;29;20019;-80
2022/04/19 18:16:32;;;;;;;3.72;2.53;;;5.90;99.90;;;;;;4956159;29;20039;-81
2022/04/19 18:18:58;;;;;;;2.67;2.15;;;5.90;99.90;;;;;;4970741;29;20043;-80
2022/04/19 18:21:23;;;;;;;3.63;2.10;;;5.60;99.90;;;;;;4966133;29;20031;-80
2022/04/19 18:26:34;;;;;;;3.67;2.90;;;5.70;99.90;;;;;;4971479;28;20051;-81
2022/04/19 18:29:00;;;;;;;3.47;2.97;;;5.70;99.90;;;;;;4971070;29;20035;-81
2022/04/19 18:31:28;;;;;;;4.25;3.13;;;5.60;99.90;;;;;;4954864;29;20027;-80
2022/04/19 18:33:55;;;;;;;6.35;3.15;;;5.60;99.90;;;;;;4955287;29;20435;-81
2022/04/19 18:36:22;;;;;;;3.90;3.28;;;6.20;99.90;;;;;;4957129;29;20023;-80
2022/04/19 18:38:50;;;;;;;4.80;3.30;;;5.60;99.90;;;;;;4972705;29;20049;-81
2022/04/19 18:41:17;;;;;;;3.50;3.20;;;5.60;99.90;;;;;;4977532;29;20030;-81
2022/04/19 18:43:43;;;;;;;5.63;3.47;;;5.70;99.90;;;;;;4977029;29;20023;-81
2022/04/19 18:46:09;;;;;;;4.78;4.28;;;5.90;99.90;;;;;;5016577;23;20059;-81
2022/04/19 18:48:35;;;;;;;5.05;4.55;;;5.60;99.90;;;;;;4957158;29;20058;-80
2022/04/19 18:51:01;;;;;;;3.90;3.20;;;6.10;99.90;;;;;;4968764;29;20039;-80
2022/04/19 18:53:27;;;;;;;3.55;3.25;;;5.60;99.90;;;;;;4970408;29;20027;-81
2022/04/19 18:55:55;;;;;;;3.40;2.97;;;5.60;99.90;;;;;;4971044;28;20057;-81
2022/04/19 18:58:21;;;;;;;3.38;3.08;;;5.60;99.90;;;;;;4971399;29;20046;-80
2022/04/19 19:00:47;;;;;;;4.00;3.30;;;5.30;99.90;;;;;;4955369;29;20027;-80
2022/04/19 19:03:14;;;;;;;4.65;3.67;;;5.80;99.90;;;;;;4959156;29;20031;-80
2022/04/19 19:05:40;;;;;;;27.27;13.00;;;6.30;99.90;;;;;;4959550;28;20035;-81
2022/04/19 19:08:10;;;;;;;11.45;5.22;;;5.70;99.90;;;;;;4961926;29;20526;-81
2022/04/19 19:10:36;;;;;;;8.50;5.38;;;5.80;99.90;;;;;;4948367;29;20518;-80
2022/04/19 19:13:02;;;;;;;4.47;3.20;;;5.90;99.90;;;;;;4958179;29;20020;-80
2022/04/19 19:15:28;;;;;;;4.03;2.97;;;5.60;99.90;;;;;;4972917;28;20028;-80
2022/04/19 19:17:54;;;;;;;5.70;3.15;;;5.70;99.90;;;;;;4951463;29;20047;-80
2022/04/19 19:20:21;;;;;;;8.30;4.63;;;5.70;99.90;;;;;;4957453;29;20035;-81
2022/04/19 19:22:47;;;;;;;6.05;4.10;;;5.60;99.90;;;;;;4977427;29;20104;-81
2022/04/19 19:25:15;;;;;;;4.75;3.88;;;5.50;99.90;;;;;;4975056;29;20033;-81
2022/04/19 19:27:41;;;;;;;20.60;11.63;;;5.60;99.90;;;;;;4963100;23;20051;-81
2022/04/19 19:30:09;;;;;;;23.58;12.35;;;5.60;99.90;;;;;;4937886;29;20047;-80
2022/04/19 19:32:38;;;;;;;42.67;22.90;;;5.10;99.90;;;;;;4937116;29;20027;-81
2022/04/19 19:35:06;;;;;;;12.70;8.18;;;5.70;99.90;;;;;;4936471;29;20126;-81
2022/04/19 19:37:34;;;;;;;4.93;4.18;;;5.60;99.90;;;;;;4936800;29;20035;-81
2022/04/19 19:40:00;;;;;;;5.13;3.70;;;6.10;99.90;;;;;;4953798;29;20115;-80
2022/04/19 19:42:26;;;;;;;4.28;3.72;;;6.10;99.90;;;;;;4955048;29;20024;-80
2022/04/19 19:44:51;;;;;;;5.03;4.53;;;5.70;99.90;;;;;;4937904;29;20028;-80
2022/04/19 19:47:18;;;;;;;4.20;3.80;;;5.70;99.90;;;;;;4935310;29;20035;-81
2022/04/19 19:49:44;;;;;;;5.03;3.35;;;6.20;99.90;;;;;;4932951;29;20156;-81
2022/04/19 19:52:09;;;;;;;5.32;3.75;;;5.70;99.90;;;;;;4949958;29;20023;-80
2022/04/19 19:54:35;;;;;;;3.60;3.22;;;5.40;99.90;;;;;;4932107;29;20114;-80
2022/04/19 19:57:01;;;;;;;5.35;4.40;;;6.00;99.90;;;;;;4948424;29;20103;-81
2022/04/19 19:59:26;;;;;;;4.30;3.63;;;5.80;99.90;;;;;;4930839;29;20532;-80
2022/04/19 20:01:52;;;;;;;4.82;4.15;;;5.70;99.90;;;;;;4930423;29;20091;-81
2022/04/19 20:04:19;;;;;;;4.75;4.07;;;5.40;99.90;;;;;;4929991;29;20387;-83
2022/04/19 20:06:44;;;;;;;14.63;6.65;;;5.90;99.90;;;;;;4946794;29;20024;-81
2022/04/19 20:09:10;;;;;;;15.95;7.43;;;5.30;99.90;;;;;;4930803;29;20036;-80
2022/04/19 20:11:37;;;;;;;46.97;20.67;;;5.30;99.90;;;;;;4947331;29;20023;-80